Time;durP1;ratioP1;P1;durP2;ratioP2;P2;SDS_P1;SDS_P2;PMS_P1;PMS_P2;Temp;Humidity;BMP_temperature;BMP_pressure;BME280_temperature;BME280_humidity;BME280_pressure;Samples;Min_cycle;Max_cycle;Signal;HPM_P1;HPM_P2
2022/06/26 17:26:10;;;;;;;0.88;0.88;;;26.70;99.90;;;;;;5041066;27;20902;-85
2022/06/26 17:28:38;;;;;;;0.60;0.60;;;27.20;99.90;;;;;;4939920;28;20043;-86
2022/06/26 17:31:06;;;;;;;0.73;0.68;;;28.70;99.90;;;;;;4973346;28;20054;-86
2022/06/26 17:33:35;;;;;;;0.95;0.90;;;28.70;99.90;;;;;;5009049;28;20064;-83
2022/06/26 17:36:05;;;;;;;1.00;0.98;;;28.10;99.90;;;;;;4997984;28;20039;-82
2022/06/26 17:38:33;;;;;;;1.13;0.70;;;28.00;99.90;;;;;;5002582;28;20050;-83
2022/06/26 17:41:01;;;;;;;0.75;0.75;;;27.70;99.90;;;;;;5020057;23;20527;-88
2022/06/26 17:43:29;;;;;;;1.77;0.55;;;27.30;99.90;;;;;;4954775;28;20499;-84
2022/06/26 17:45:57;;;;;;;0.63;0.63;;;27.20;99.90;;;;;;4964845;28;20054;-83
2022/06/26 17:48:26;;;;;;;0.95;0.95;;;27.20;99.90;;;;;;4964189;28;20117;-87
2022/06/26 17:50:54;;;;;;;0.77;0.77;;;27.10;99.90;;;;;;4979834;28;20054;-86
2022/06/26 17:57:11;;;;;;;0.73;0.73;;;26.70;99.90;;;;;;4961748;28;20061;-85
2022/06/26 17:59:43;;;;;;;0.57;0.57;;;26.60;99.90;;;;;;4937945;28;20052;-87
2022/06/26 18:02:18;;;;;;;1.00;0.93;;;26.50;99.90;;;;;;4963489;28;20043;-87
2022/06/26 18:04:46;;;;;;;1.00;0.88;;;26.40;99.90;;;;;;4948011;28;20047;-87
2022/06/26 18:07:13;;;;;;;0.68;0.68;;;26.30;99.90;;;;;;4964148;28;20050;-87
2022/06/26 18:09:42;;;;;;;2.05;1.13;;;26.30;99.90;;;;;;4945170;28;20055;-85
2022/06/26 18:12:11;;;;;;;0.73;0.73;;;26.20;99.90;;;;;;4945185;28;20047;-86
2022/06/26 18:14:47;;;;;;;0.73;0.73;;;26.20;99.90;;;;;;4914033;29;20051;-87
2022/06/26 18:17:15;;;;;;;0.70;0.70;;;26.10;99.90;;;;;;4928612;29;20066;-85
2022/06/26 18:19:43;;;;;;;1.65;0.82;;;26.10;99.90;;;;;;4945342;28;20593;-86
2022/06/26 18:22:11;;;;;;;0.50;0.50;;;25.90;99.90;;;;;;4924991;28;20055;-87
2022/06/26 18:24:39;;;;;;;2.28;1.70;;;25.70;99.90;;;;;;4943474;29;20483;-86
2022/06/26 18:27:06;;;;;;;0.50;0.50;;;25.60;99.90;;;;;;4944596;28;20390;-86
2022/06/26 18:29:35;;;;;;;1.02;0.80;;;25.40;99.90;;;;;;4943644;28;20058;-86
2022/06/26 18:32:03;;;;;;;0.55;0.55;;;25.40;99.90;;;;;;4945701;29;20085;-87
2022/06/26 18:34:31;;;;;;;0.70;0.70;;;25.70;99.90;;;;;;4943951;29;20063;-86
2022/06/26 18:36:59;;;;;;;0.68;0.50;;;25.40;99.90;;;;;;4934897;29;20051;-86
2022/06/26 18:39:27;;;;;;;0.60;0.60;;;25.20;99.90;;;;;;4931527;28;20094;-86
2022/06/26 18:41:55;;;;;;;0.60;0.60;;;24.90;99.90;;;;;;4933329;29;20062;-87
2022/06/26 18:44:23;;;;;;;2.08;0.95;;;24.70;99.90;;;;;;4950615;28;20138;-86
2022/06/26 18:46:51;;;;;;;0.63;0.60;;;24.60;99.90;;;;;;4971390;28;20047;-86
2022/06/26 18:49:19;;;;;;;0.52;0.50;;;24.50;99.90;;;;;;4954462;28;20050;-85
2022/06/26 18:51:47;;;;;;;2.28;0.93;;;24.30;99.90;;;;;;4932663;28;20040;-86
2022/06/26 18:54:15;;;;;;;1.67;0.85;;;24.10;99.90;;;;;;4930796;29;20047;-86
2022/06/26 18:56:43;;;;;;;2.38;0.60;;;23.90;99.90;;;;;;4930664;29;20051;-87
2022/06/26 18:59:15;;;;;;;1.08;0.98;;;23.50;99.90;;;;;;4927287;29;20040;-86
2022/06/26 19:01:44;;;;;;;1.77;0.63;;;23.40;99.90;;;;;;4949266;28;20054;-86
2022/06/26 19:04:12;;;;;;;2.08;0.60;;;23.20;99.90;;;;;;4951245;28;20070;-85
2022/06/26 19:06:41;;;;;;;5.57;0.95;;;23.10;99.90;;;;;;4950491;28;20058;-85
2022/06/26 19:09:13;;;;;;;2.60;0.60;;;23.00;99.90;;;;;;4970137;28;20540;-85
2022/06/26 19:14:46;;;;;;;0.65;0.65;;;22.80;99.90;;;;;;4949350;28;20684;-85
2022/06/26 19:17:17;;;;;;;1.45;0.85;;;22.60;99.90;;;;;;4965567;28;20043;-81
2022/06/26 19:19:54;;;;;;;1.38;0.98;;;22.50;99.90;;;;;;4949347;28;20059;-82
2022/06/26 19:22:24;;;;;;;7.88;1.00;;;22.30;99.90;;;;;;4933060;29;20043;-81
2022/06/26 19:25:02;;;;;;;0.73;0.60;;;22.00;99.90;;;;;;4945303;28;20437;-81
2022/06/26 19:27:50;;;;;;;0.85;0.60;;;21.70;99.90;;;;;;4947335;28;20082;-81
2022/06/26 19:35:03;;;;;;;1.40;0.98;;;21.10;99.90;;;;;;4958084;28;20039;-82
2022/06/26 19:37:35;;;;;;;0.73;0.73;;;20.70;99.90;;;;;;4945026;28;20073;-81
2022/06/26 19:40:09;;;;;;;1.05;1.05;;;20.50;99.90;;;;;;4945578;29;20067;-81
2022/06/26 19:42:38;;;;;;;2.17;1.30;;;20.50;99.90;;;;;;4940236;28;20054;-82
2022/06/26 19:45:09;;;;;;;0.73;0.73;;;20.40;99.90;;;;;;4945399;29;20055;-81
2022/06/26 19:47:39;;;;;;;4.28;0.70;;;20.20;99.90;;;;;;4925750;28;20052;-81
2022/06/26 19:52:59;;;;;;;0.68;0.68;;;20.10;99.90;;;;;;4923429;29;20051;-81
2022/06/26 19:55:40;;;;;;;1.63;0.90;;;20.00;99.90;;;;;;4956465;28;20051;-82
2022/06/26 19:58:18;;;;;;;1.50;0.85;;;20.00;99.90;;;;;;4946292;28;20535;-82
2022/06/26 20:00:53;;;;;;;1.42;1.00;;;19.90;99.90;;;;;;4946254;28;20051;-82
2022/06/26 20:06:22;;;;;;;1.15;0.80;;;19.80;99.90;;;;;;4940415;28;20055;-82
2022/06/26 20:09:06;;;;;;;0.57;0.57;;;19.80;99.90;;;;;;4958630;28;20058;-82
2022/06/26 20:11:54;;;;;;;2.15;0.70;;;19.70;99.90;;;;;;4943886;28;20059;-83
2022/06/26 20:14:33;;;;;;;0.88;0.70;;;19.70;99.90;;;;;;4941442;28;20415;-81
2022/06/26 20:17:22;;;;;;;2.05;0.90;;;19.70;99.90;;;;;;4938047;28;20051;-81
2022/06/26 20:19:59;;;;;;;3.00;1.13;;;19.70;99.90;;;;;;4921172;28;20051;-81
2022/06/26 20:22:34;;;;;;;7.13;0.88;;;19.70;99.90;;;;;;4929389;28;20396;-87
2022/06/26 20:25:12;;;;;;;0.88;0.88;;;19.70;99.90;;;;;;4907108;28;20044;-87
2022/06/26 20:28:27;;;;;;;0.45;0.45;;;19.70;99.90;;;;;;4934915;29;21250;-87
2022/06/26 20:30:57;;;;;;;4.60;1.05;;;19.60;99.90;;;;;;4940571;28;20062;-80
2022/06/26 20:33:26;;;;;;;0.80;0.80;;;19.40;99.90;;;;;;4945694;28;20058;-80
2022/06/26 20:35:57;;;;;;;1.17;0.90;;;19.30;99.90;;;;;;4940541;28;20047;-80
2022/06/26 20:38:25;;;;;;;1.70;0.85;;;19.40;99.90;;;;;;4943579;28;20051;-79
2022/06/26 20:40:53;;;;;;;0.77;0.77;;;19.30;99.90;;;;;;4945227;29;20755;-79
2022/06/26 20:43:25;;;;;;;0.70;0.70;;;19.30;99.90;;;;;;4944871;28;20047;-80
2022/06/26 20:45:54;;;;;;;1.75;1.15;;;19.20;99.90;;;;;;4950920;28;20858;-79
2022/06/26 20:48:22;;;;;;;1.20;1.15;;;19.10;99.90;;;;;;4952052;28;20055;-80
2022/06/26 20:50:50;;;;;;;0.73;0.70;;;18.90;99.90;;;;;;4946424;28;20050;-79
2022/06/26 20:53:19;;;;;;;2.53;1.33;;;18.70;99.90;;;;;;4945769;29;20094;-79
2022/06/26 20:55:47;;;;;;;0.80;0.80;;;18.60;99.90;;;;;;4944820;28;20043;-79
2022/06/26 20:58:18;;;;;;;0.93;0.80;;;18.60;99.90;;;;;;4944726;28;20043;-79
2022/06/26 21:00:52;;;;;;;1.25;0.98;;;18.70;99.90;;;;;;4945270;28;20519;-79
2022/06/26 21:03:25;;;;;;;0.80;0.80;;;18.60;99.90;;;;;;4945087;28;20044;-79
2022/06/26 21:05:58;;;;;;;2.92;0.70;;;18.50;99.90;;;;;;4944813;28;20047;-79
2022/06/26 21:08:26;;;;;;;3.53;1.13;;;18.50;99.90;;;;;;4945136;29;20082;-79
2022/06/26 21:10:53;;;;;;;0.95;0.95;;;18.40;99.90;;;;;;4943714;28;20055;-79
2022/06/26 21:13:21;;;;;;;3.38;1.25;;;18.40;99.90;;;;;;4945476;28;20062;-79
2022/06/26 21:15:49;;;;;;;1.65;0.98;;;18.50;99.90;;;;;;4944874;28;20047;-79
2022/06/26 21:18:17;;;;;;;1.10;1.10;;;18.50;99.90;;;;;;4944544;28;20447;-79
2022/06/26 21:20:45;;;;;;;0.73;0.73;;;18.50;99.90;;;;;;4945160;29;20051;-79
2022/06/26 21:23:13;;;;;;;1.08;0.98;;;18.40;99.90;;;;;;4946502;28;20083;-79
2022/06/26 21:25:42;;;;;;;2.75;1.35;;;18.40;99.90;;;;;;4925514;29;20183;-79
2022/06/26 21:28:11;;;;;;;2.60;1.23;;;18.50;99.90;;;;;;4924462;29;20051;-79
2022/06/26 21:30:40;;;;;;;3.72;1.48;;;18.50;99.90;;;;;;4925773;29;20051;-79
2022/06/26 21:33:08;;;;;;;0.73;0.73;;;18.60;99.90;;;;;;4940998;29;20703;-79
2022/06/26 21:35:40;;;;;;;0.90;0.90;;;18.60;99.90;;;;;;4925550;29;20048;-79
2022/06/26 21:38:22;;;;;;;1.05;0.95;;;18.40;99.90;;;;;;4931531;28;20436;-79
2022/06/26 21:40:50;;;;;;;2.50;1.80;;;18.40;99.90;;;;;;4944804;29;20480;-79
2022/06/26 21:43:17;;;;;;;2.05;1.88;;;18.40;99.90;;;;;;4944878;28;20634;-79
2022/06/26 21:45:45;;;;;;;0.90;0.90;;;18.30;99.90;;;;;;4943683;28;20058;-79
2022/06/26 21:48:13;;;;;;;0.70;0.70;;;18.20;99.90;;;;;;4945141;28;20062;-79
2022/06/26 21:50:43;;;;;;;1.40;1.38;;;18.20;99.90;;;;;;4944281;28;20505;-80
2022/06/26 21:53:16;;;;;;;0.82;0.82;;;18.30;99.90;;;;;;4945352;29;20855;-79
2022/06/26 21:55:54;;;;;;;2.83;1.02;;;18.30;99.90;;;;;;4944187;28;20050;-79
2022/06/26 21:58:23;;;;;;;3.85;2.03;;;18.30;99.90;;;;;;4927337;28;20047;-79
2022/06/26 22:00:52;;;;;;;1.13;1.05;;;18.40;99.90;;;;;;4944697;29;20744;-79
2022/06/26 22:03:21;;;;;;;1.20;0.95;;;18.50;99.90;;;;;;4944508;28;20058;-79
2022/06/26 22:05:49;;;;;;;1.58;1.10;;;18.60;99.90;;;;;;4944932;28;20055;-79
2022/06/26 22:08:17;;;;;;;0.90;0.90;;;18.80;99.90;;;;;;4944996;29;20058;-80
2022/06/26 22:10:45;;;;;;;3.03;1.02;;;19.00;99.90;;;;;;4943146;28;20050;-79
2022/06/26 22:13:13;;;;;;;1.55;1.45;;;19.00;99.90;;;;;;4946393;29;20053;-79
2022/06/26 22:15:41;;;;;;;1.92;1.10;;;18.90;99.90;;;;;;4948266;28;20043;-79
2022/06/26 22:18:09;;;;;;;0.90;0.90;;;18.90;99.90;;;;;;4947752;28;20051;-79
2022/06/26 22:20:38;;;;;;;1.35;1.00;;;18.90;99.90;;;;;;4947976;29;20819;-79
2022/06/26 22:23:06;;;;;;;0.93;0.90;;;19.00;99.90;;;;;;4946554;28;20058;-80
2022/06/26 22:27:53;;;;;;;3.53;1.95;;;19.10;99.90;;;;;;4946428;28;20062;-79
2022/06/26 22:28:22;;;;;;;1.20;1.08;;;19.20;99.90;;;;;;4948052;28;20058;-80
2022/06/26 22:30:50;;;;;;;3.70;1.23;;;19.30;99.90;;;;;;4947650;28;20043;-81
2022/06/26 22:33:18;;;;;;;0.93;0.93;;;19.30;99.90;;;;;;4946778;28;20066;-80
2022/06/26 22:35:46;;;;;;;1.45;1.35;;;19.30;99.90;;;;;;4947727;28;20043;-81
2022/06/26 22:38:22;;;;;;;0.82;0.82;;;19.30;99.90;;;;;;4941127;28;20051;-81
2022/06/26 22:40:56;;;;;;;1.00;1.00;;;19.20;99.90;;;;;;4927978;29;20063;-81
2022/06/26 22:43:24;;;;;;;1.38;1.10;;;19.10;99.90;;;;;;4922200;29;20540;-81
2022/06/26 22:45:52;;;;;;;1.63;1.30;;;19.10;99.90;;;;;;4931082;28;20059;-81
2022/06/26 22:48:20;;;;;;;2.47;0.80;;;19.10;99.90;;;;;;4948125;29;20051;-81
2022/06/26 22:50:48;;;;;;;1.80;1.00;;;19.00;99.90;;;;;;4946163;28;20047;-81
2022/06/26 22:53:16;;;;;;;0.90;0.90;;;19.00;99.90;;;;;;4947899;28;20063;-82
2022/06/26 22:55:44;;;;;;;1.90;1.80;;;19.00;99.90;;;;;;4947108;28;20062;-80
2022/06/26 22:58:11;;;;;;;0.85;0.85;;;19.00;99.90;;;;;;4947391;28;20062;-81
2022/06/26 23:00:41;;;;;;;1.10;1.00;;;19.10;99.90;;;;;;4948055;29;20066;-81
2022/06/26 23:03:09;;;;;;;1.50;1.40;;;19.20;99.90;;;;;;4947382;28;20653;-80
2022/06/26 23:05:37;;;;;;;1.38;1.25;;;19.20;99.90;;;;;;4946807;28;20058;-80
2022/06/26 23:08:05;;;;;;;0.88;0.88;;;19.20;99.90;;;;;;4947366;29;20393;-81
2022/06/26 23:10:32;;;;;;;0.98;0.90;;;19.20;99.90;;;;;;4946222;28;20063;-81
2022/06/26 23:13:00;;;;;;;0.93;0.93;;;19.20;99.90;;;;;;4947244;28;20058;-81
2022/06/26 23:15:28;;;;;;;1.38;1.35;;;19.20;99.90;;;;;;4947039;28;20058;-81
2022/06/26 23:17:56;;;;;;;1.27;1.17;;;19.10;99.90;;;;;;4947402;28;20529;-81
2022/06/26 23:20:24;;;;;;;1.50;1.40;;;19.10;99.90;;;;;;4947363;29;20062;-81
2022/06/26 23:22:52;;;;;;;1.50;1.40;;;19.10;99.90;;;;;;4936290;28;20399;-81
2022/06/26 23:25:22;;;;;;;1.30;1.20;;;19.10;99.90;;;;;;4927915;29;20397;-81
2022/06/26 23:27:54;;;;;;;4.20;1.10;;;19.10;99.90;;;;;;4925870;29;20051;-81
2022/06/26 23:30:22;;;;;;;2.33;2.13;;;19.00;99.90;;;;;;4926250;29;20040;-81
2022/06/26 23:32:50;;;;;;;1.35;1.20;;;19.00;99.90;;;;;;4928225;29;20067;-81
2022/06/26 23:35:21;;;;;;;1.67;1.20;;;18.90;99.90;;;;;;4926762;28;20500;-81
2022/06/26 23:37:49;;;;;;;0.95;0.95;;;18.90;99.90;;;;;;4929309;28;20537;-81
2022/06/26 23:40:17;;;;;;;1.13;1.02;;;18.90;99.90;;;;;;4947076;29;20634;-81
2022/06/26 23:42:44;;;;;;;1.20;1.10;;;18.80;99.90;;;;;;4946222;28;20044;-81
2022/06/26 23:45:12;;;;;;;2.60;1.40;;;18.80;99.90;;;;;;4946705;29;20058;-80
2022/06/26 23:47:40;;;;;;;1.23;1.17;;;18.80;99.90;;;;;;4946245;28;20062;-82
2022/06/26 23:50:09;;;;;;;1.45;1.35;;;18.80;99.90;;;;;;4946486;28;20063;-81
2022/06/26 23:52:36;;;;;;;1.25;0.98;;;18.80;99.90;;;;;;4946642;29;20051;-81
2022/06/26 23:55:12;;;;;;;1.27;1.17;;;18.90;99.90;;;;;;4946348;28;20035;-81
2022/06/26 23:57:41;;;;;;;1.05;1.00;;;18.90;99.90;;;;;;4946097;28;20062;-81
